createdAt,value
2022-10-01T00:01:25.032Z,15.29
2022-10-01T00:03:53.193Z,15.39
2022-10-01T00:06:22.493Z,15.46
2022-10-01T00:08:50.877Z,15.49
2022-10-01T00:11:24.511Z,15.38
2022-10-01T00:13:53.036Z,15.43
2022-10-01T00:16:23.540Z,15.36
2022-10-01T00:18:50.816Z,15.29
2022-10-01T00:21:23.400Z,15.17
2022-10-01T00:23:59.605Z,15.23
2022-10-01T00:26:30.263Z,15.28
2022-10-01T00:28:59.934Z,15.12
2022-10-01T00:31:33.096Z,15.17
2022-10-01T00:34:02.935Z,14.94
2022-10-01T00:36:31.839Z,15.06
2022-10-01T00:39:00.689Z,14.95
2022-10-01T00:41:35.063Z,14.92
2022-10-01T00:44:24.739Z,14.86
2022-10-01T00:46:54.996Z,14.85
2022-10-01T00:49:25.984Z,14.82
2022-10-01T00:52:00.296Z,14.71
2022-10-01T00:54:34.834Z,14.76
2022-10-01T00:57:05.199Z,14.78
2022-10-01T00:59:33.620Z,14.73
2022-10-01T01:02:00.942Z,14.74
2022-10-01T01:04:28.634Z,14.63
2022-10-01T01:06:59.601Z,14.69
2022-10-01T01:09:31.339Z,14.64
2022-10-01T01:12:11.546Z,14.75
2022-10-01T01:15:17.413Z,14.70
2022-10-01T01:18:05.689Z,14.63
2022-10-01T01:20:51.743Z,14.62
2022-10-01T01:23:19.105Z,14.57
2022-10-01T01:26:21.261Z,14.52
2022-10-01T01:28:53.686Z,14.51
2022-10-01T01:31:32.822Z,14.52
2022-10-01T01:34:03.650Z,14.54
2022-10-01T01:36:37.159Z,14.37
2022-10-01T01:39:09.637Z,14.48
2022-10-01T01:41:48.358Z,14.50
2022-10-01T01:44:17.794Z,14.51
2022-10-01T01:46:49.608Z,14.46
2022-10-01T01:49:20.206Z,14.46
2022-10-01T01:52:08.027Z,14.44
2022-10-01T01:54:36.647Z,14.34
2022-10-01T01:57:04.673Z,14.31
2022-10-01T01:59:33.952Z,14.33
2022-10-01T02:02:01.749Z,14.28
2022-10-01T02:05:03.817Z,14.24
2022-10-01T02:07:46.019Z,14.23
2022-10-01T02:10:38.036Z,14.26
2022-10-01T02:13:22.238Z,14.26
2022-10-01T02:16:15.149Z,14.23
2022-10-01T02:18:51.234Z,14.19
2022-10-01T02:21:52.462Z,14.16
2022-10-01T02:24:28.525Z,14.12
2022-10-01T02:26:57.557Z,14.09
2022-10-01T02:29:24.878Z,14.15
2022-10-01T02:31:55.846Z,14.15
2022-10-01T02:34:28.383Z,14.15
2022-10-01T02:36:58.745Z,14.15
2022-10-01T02:39:29.899Z,14.12
2022-10-01T02:42:18.471Z,14.01
2022-10-01T02:44:49.568Z,13.93
2022-10-01T02:47:35.248Z,13.93
2022-10-01T02:50:03.183Z,13.91
2022-10-01T02:52:39.117Z,13.91
2022-10-01T02:55:29.008Z,13.86
2022-10-01T02:57:57.129Z,13.88
2022-10-01T03:00:27.093Z,13.88
2022-10-01T03:02:54.683Z,13.90
2022-10-01T03:05:22.394Z,13.89
2022-10-01T03:07:49.588Z,13.79
2022-10-01T03:10:16.996Z,13.91
2022-10-01T03:12:46.800Z,13.95
2022-10-01T03:15:16.481Z,13.68
2022-10-01T03:17:43.658Z,13.99
2022-10-01T03:20:12.474Z,13.93
2022-10-01T03:22:39.561Z,13.93
2022-10-01T03:25:06.917Z,13.93
2022-10-01T03:27:34.139Z,13.92
2022-10-01T03:30:01.201Z,13.89
2022-10-01T03:32:30.943Z,13.85
2022-10-01T03:34:58.124Z,13.78
2022-10-01T03:37:25.670Z,13.82
2022-10-01T03:39:52.711Z,13.73
2022-10-01T03:42:20.022Z,13.70
2022-10-01T03:44:47.503Z,13.74
2022-10-01T03:47:14.758Z,13.71
2022-10-01T03:49:41.924Z,13.72
2022-10-01T03:52:09.109Z,13.76
2022-10-01T03:54:36.239Z,13.77
2022-10-01T03:57:03.586Z,13.68
2022-10-01T03:59:30.762Z,13.66
2022-10-01T04:01:57.909Z,13.60
2022-10-01T04:04:25.806Z,13.47
2022-10-01T04:06:52.931Z,13.62
2022-10-01T04:09:20.205Z,13.54
2022-10-01T04:11:47.803Z,13.48
2022-10-01T04:14:15.034Z,13.47
2022-10-01T04:16:42.209Z,13.39
2022-10-01T04:19:09.779Z,13.48
2022-10-01T04:21:39.348Z,13.51
2022-10-01T04:24:06.879Z,13.55
2022-10-01T04:26:34.435Z,13.51
2022-10-01T04:29:01.733Z,13.55
2022-10-01T04:31:35.427Z,13.43
2022-10-01T04:34:04.029Z,13.61
2022-10-01T04:36:31.610Z,13.62
2022-10-01T04:39:02.393Z,13.59
2022-10-01T04:41:31.259Z,13.50
2022-10-01T04:44:00.313Z,13.58
2022-10-01T04:46:30.650Z,13.58
2022-10-01T04:48:58.219Z,13.63
2022-10-01T04:51:26.219Z,13.77
2022-10-01T04:53:53.494Z,13.72
2022-10-01T04:56:20.955Z,13.74
2022-10-01T04:58:48.700Z,13.78
2022-10-01T05:01:16.459Z,13.76
2022-10-01T05:03:43.488Z,13.94
2022-10-01T05:06:11.051Z,14.02
2022-10-01T05:08:39.219Z,13.96
2022-10-01T05:11:07.049Z,14.10
2022-10-01T05:13:34.726Z,14.15
2022-10-01T05:16:04.008Z,14.23
2022-10-01T05:18:32.481Z,14.29
2022-10-01T05:21:04.500Z,14.30
2022-10-01T05:23:33.023Z,14.42
2022-10-01T05:26:00.984Z,14.63
2022-10-01T05:28:28.355Z,14.74
2022-10-01T05:30:59.700Z,14.86
2022-10-01T05:33:29.046Z,15.01
2022-10-01T05:35:59.940Z,15.13
2022-10-01T05:38:27.146Z,15.31
2022-10-01T05:40:54.519Z,15.45
2022-10-01T05:43:22.213Z,15.55
2022-10-01T05:45:50.075Z,15.62
2022-10-01T05:48:17.487Z,15.74
2022-10-01T05:50:45.069Z,15.89
2022-10-01T05:53:14.100Z,16.09
2022-10-01T05:55:41.791Z,16.25
2022-10-01T05:58:11.467Z,16.33
2022-10-01T06:00:41.384Z,16.39
2022-10-01T06:03:13.079Z,16.49
2022-10-01T06:05:40.399Z,16.64
2022-10-01T06:08:09.795Z,16.62
2022-10-01T06:10:38.004Z,16.89
2022-10-01T06:13:06.930Z,17.04
2022-10-01T06:15:40.130Z,17.15
2022-10-01T06:21:40.320Z,17.29
2022-10-01T06:24:18.476Z,17.44
2022-10-01T06:26:50.404Z,17.52
2022-10-01T06:29:22.505Z,17.68
2022-10-01T06:31:49.976Z,17.81
2022-10-01T06:34:17.242Z,17.94
2022-10-01T06:36:44.369Z,18.03
2022-10-01T06:39:11.423Z,18.16
2022-10-01T06:41:38.628Z,18.27
2022-10-01T06:44:10.510Z,18.37
2022-10-01T06:46:37.848Z,18.51
2022-10-01T06:49:05.014Z,18.67
2022-10-01T06:51:51.308Z,18.76
2022-10-01T06:54:22.825Z,18.86
2022-10-01T06:56:49.962Z,18.86
2022-10-01T06:59:17.884Z,18.95
2022-10-01T07:01:45.095Z,19.16
2022-10-01T07:04:13.160Z,19.24
2022-10-01T07:06:48.820Z,19.39
2022-10-01T07:09:32.705Z,19.55
2022-10-01T07:12:04.187Z,19.70
2022-10-01T07:14:35.870Z,19.76
2022-10-01T07:17:27.632Z,19.94
2022-10-01T07:20:04.800Z,20.18
2022-10-01T07:22:31.790Z,20.31
2022-10-01T07:25:06.641Z,20.51
2022-10-01T07:27:47.213Z,20.68
2022-10-01T07:30:25.260Z,20.85
2022-10-01T07:32:54.447Z,20.96
2022-10-01T07:35:24.889Z,21.14
2022-10-01T07:37:52.306Z,21.24
2022-10-01T07:40:20.054Z,21.41
2022-10-01T07:43:03.680Z,21.60
2022-10-01T07:45:54.593Z,21.76
2022-10-01T07:51:38.153Z,22.18
2022-10-01T07:54:14.335Z,22.34
2022-10-01T07:56:48.691Z,22.51
2022-10-01T08:02:38.652Z,22.94
2022-10-01T08:05:37.785Z,23.07
2022-10-01T08:08:09.542Z,23.18
2022-10-01T08:11:13.685Z,23.35
2022-10-01T08:13:43.049Z,23.46
2022-10-01T08:16:15.658Z,23.65
2022-10-01T08:18:59.875Z,23.79
2022-10-01T08:21:31.401Z,23.99
2022-10-01T08:24:06.478Z,24.07
2022-10-01T08:27:07.791Z,24.09
2022-10-01T08:29:35.507Z,24.09
2022-10-01T08:32:14.402Z,24.08
2022-10-01T08:34:41.679Z,24.16
2022-10-01T08:37:12.039Z,24.18
2022-10-01T08:39:39.411Z,24.34
2022-10-01T08:42:29.631Z,24.40
2022-10-01T08:45:09.338Z,24.43
2022-10-01T08:47:41.499Z,24.56
2022-10-01T08:50:35.374Z,24.65
2022-10-01T08:53:20.631Z,24.77
2022-10-01T08:55:57.628Z,24.92
2022-10-01T08:58:38.217Z,24.99
2022-10-01T09:01:18.518Z,25.11
2022-10-01T09:03:49.598Z,25.14
2022-10-01T09:06:46.228Z,25.24
2022-10-01T09:10:15.753Z,25.33
2022-10-01T09:13:24.928Z,25.43
2022-10-01T09:16:24.152Z,25.61
2022-10-01T09:19:47.962Z,25.64
2022-10-01T09:22:39.316Z,25.64
2022-10-01T09:25:29.271Z,25.84
2022-10-01T09:28:24.409Z,26.03
2022-10-01T09:31:07.405Z,26.29
2022-10-01T09:33:41.636Z,26.44
2022-10-01T09:36:18.122Z,26.66
2022-10-01T09:38:52.441Z,26.89
2022-10-01T09:41:20.227Z,27.05
2022-10-01T09:43:48.270Z,27.15
2022-10-01T09:46:17.598Z,27.26
2022-10-01T09:49:03.492Z,27.49
2022-10-01T09:52:27.479Z,27.56
2022-10-01T09:55:38.860Z,27.53
2022-10-01T10:01:34.174Z,27.62
2022-10-01T10:04:04.441Z,27.75
2022-10-01T10:06:44.236Z,27.86
2022-10-01T10:09:20.401Z,27.89
2022-10-01T10:11:51.955Z,27.94
2022-10-01T10:14:44.978Z,27.99
2022-10-01T10:17:17.739Z,28.11
2022-10-01T10:19:51.906Z,28.12
2022-10-01T10:22:28.201Z,28.11
2022-10-01T10:25:13.034Z,28.17
2022-10-01T10:28:08.035Z,28.19
2022-10-01T10:31:02.851Z,28.26
2022-10-01T10:33:47.229Z,28.35
2022-10-01T10:36:43.063Z,28.50
2022-10-01T10:39:38.423Z,28.63
2022-10-01T10:42:15.713Z,28.81
2022-10-01T10:44:52.819Z,28.73
2022-10-01T10:47:28.657Z,28.69
2022-10-01T10:50:44.431Z,28.58
2022-10-01T10:56:29.685Z,28.49
2022-10-01T10:59:26.622Z,28.44
2022-10-01T11:02:19.409Z,28.50
2022-10-01T11:06:02.386Z,28.43
2022-10-01T11:08:40.457Z,28.39
2022-10-01T11:11:44.058Z,28.43
2022-10-01T11:15:24.313Z,28.50
2022-10-01T11:18:15.809Z,28.48
2022-10-01T11:21:47.218Z,28.50
2022-10-01T11:24:48.475Z,28.52
2022-10-01T11:28:00.643Z,28.48
2022-10-01T11:30:49.714Z,28.41
2022-10-01T11:34:09.454Z,28.33
2022-10-01T11:36:42.888Z,28.19
2022-10-01T11:39:43.481Z,28.02
2022-10-01T11:42:29.188Z,27.95
2022-10-01T11:45:24.623Z,27.95
2022-10-01T11:48:14.590Z,27.89
2022-10-01T11:51:05.278Z,27.78
2022-10-01T11:54:27.877Z,27.73
2022-10-01T11:57:36.244Z,27.69
2022-10-01T12:00:33.213Z,27.67
2022-10-01T12:03:46.811Z,27.60
2022-10-01T12:06:49.790Z,27.61
2022-10-01T12:09:52.451Z,27.62
2022-10-01T12:12:39.638Z,27.64
2022-10-01T12:15:55.764Z,27.68
2022-10-01T12:18:59.124Z,27.69
2022-10-01T12:22:04.795Z,27.69
2022-10-01T12:25:03.032Z,27.65
2022-10-01T12:28:28.967Z,27.68
2022-10-01T12:31:36.314Z,27.66
2022-10-01T12:34:37.300Z,27.68
2022-10-01T12:37:28.365Z,27.76
2022-10-01T12:40:49.281Z,27.79
2022-10-01T12:43:40.126Z,27.79
2022-10-01T12:46:54.505Z,27.74
2022-10-01T12:49:58.024Z,27.32
2022-10-01T12:53:29.353Z,27.73
2022-10-01T12:56:43.229Z,27.76
2022-10-01T12:59:58.459Z,27.83
2022-10-01T13:03:02.639Z,27.89
2022-10-01T13:05:47.488Z,27.89
2022-10-01T13:09:11.283Z,27.88
2022-10-01T13:12:25.827Z,27.94
2022-10-01T13:15:12.858Z,27.98
2022-10-01T13:18:52.775Z,28.02
2022-10-01T13:21:34.726Z,28.09
2022-10-01T13:24:43.762Z,28.17
2022-10-01T13:27:37.971Z,28.25
2022-10-01T13:30:35.162Z,28.25
2022-10-01T13:33:07.004Z,28.35
2022-10-01T13:35:44.158Z,28.27
2022-10-01T13:38:45.539Z,28.30
2022-10-01T13:41:27.326Z,28.34
2022-10-01T13:44:30.393Z,28.33
2022-10-01T13:47:15.028Z,28.32
2022-10-01T13:50:57.583Z,28.35
2022-10-01T13:53:39.194Z,28.46
2022-10-01T13:56:17.394Z,28.58
2022-10-01T13:59:08.477Z,28.58
2022-10-01T14:01:45.057Z,28.41
2022-10-01T14:04:38.133Z,28.49
2022-10-01T14:07:41.039Z,28.33
2022-10-01T14:10:19.374Z,28.23
2022-10-01T14:13:12.473Z,28.14
2022-10-01T14:16:33.947Z,28.07
2022-10-01T14:19:06.796Z,27.94
2022-10-01T14:22:31.768Z,27.85
2022-10-01T14:25:55.246Z,27.72
2022-10-01T14:29:43.411Z,27.63
2022-10-01T14:32:55.585Z,27.50
2022-10-01T14:35:40.323Z,27.43
2022-10-01T14:38:23.550Z,27.35
2022-10-01T14:40:54.342Z,27.31
2022-10-01T14:43:37.510Z,27.23
2022-10-01T14:49:25.292Z,26.99
2022-10-01T14:55:41.088Z,26.80
2022-10-01T14:58:40.301Z,26.76
2022-10-01T15:01:31.476Z,26.63
2022-10-01T15:04:22.991Z,26.56
2022-10-01T15:07:17.731Z,26.50
2022-10-01T15:09:47.483Z,26.44
2022-10-01T15:12:32.348Z,26.36
2022-10-01T15:15:04.321Z,26.32
2022-10-01T15:17:37.056Z,26.27
2022-10-01T15:20:05.356Z,26.22
2022-10-01T15:22:40.810Z,26.10
2022-10-01T15:25:53.028Z,25.99
2022-10-01T15:28:35.508Z,25.85
2022-10-01T15:31:10.707Z,25.78
2022-10-01T15:33:54.478Z,25.70
2022-10-01T15:36:48.320Z,25.66
2022-10-01T15:39:28.948Z,25.52
2022-10-01T15:42:18.781Z,25.42
2022-10-01T15:45:00.151Z,25.31
2022-10-01T15:47:57.019Z,25.17
2022-10-01T15:50:47.376Z,25.07
2022-10-01T15:53:41.341Z,24.96
2022-10-01T15:59:59.166Z,24.71
2022-10-01T16:02:35.820Z,24.56
2022-10-01T16:05:14.514Z,24.54
2022-10-01T16:07:58.636Z,24.45
2022-10-01T16:10:48.671Z,24.36
2022-10-01T16:13:57.434Z,24.28
2022-10-01T16:16:57.020Z,24.18
2022-10-01T16:20:23.311Z,24.12
2022-10-01T16:23:35.381Z,24.03
2022-10-01T16:26:41.098Z,24.01
2022-10-01T16:29:26.692Z,23.96
2022-10-01T16:32:04.970Z,23.92
2022-10-01T16:34:48.350Z,23.82
2022-10-01T16:37:28.862Z,23.79
2022-10-01T16:40:05.798Z,23.73
2022-10-01T16:42:38.428Z,23.69
2022-10-01T16:45:12.371Z,23.66
2022-10-01T16:47:55.917Z,23.58
2022-10-01T16:50:34.481Z,23.52
2022-10-01T16:53:16.305Z,23.50
2022-10-01T16:56:27.334Z,23.42
2022-10-01T16:59:03.049Z,23.39
2022-10-01T17:01:35.632Z,23.37
2022-10-01T17:04:05.569Z,23.36
2022-10-01T17:06:43.456Z,23.29
2022-10-01T17:09:20.822Z,23.24
2022-10-01T17:11:52.015Z,23.12
2022-10-01T17:14:31.860Z,23.04
2022-10-01T17:17:10.428Z,22.97
2022-10-01T17:19:56.246Z,22.88
2022-10-01T17:22:30.387Z,22.81
2022-10-01T17:25:27.481Z,22.75
2022-10-01T17:28:50.469Z,22.66
2022-10-01T17:31:28.990Z,22.63
2022-10-01T17:34:05.585Z,22.49
2022-10-01T17:36:50.538Z,22.48
2022-10-01T17:39:49.500Z,22.44
2022-10-01T17:42:42.029Z,22.35
2022-10-01T17:45:34.801Z,22.18
2022-10-01T17:48:14.037Z,22.10
2022-10-01T17:50:46.080Z,22.03
2022-10-01T17:53:20.821Z,22.03
2022-10-01T17:55:51.055Z,21.99
2022-10-01T17:58:27.595Z,21.92
2022-10-01T18:00:54.970Z,21.83
2022-10-01T18:03:22.693Z,21.88
2022-10-01T18:05:51.455Z,21.82
2022-10-01T18:08:26.442Z,21.83
2022-10-01T18:11:08.230Z,21.83
2022-10-01T18:13:37.831Z,21.80
2022-10-01T18:16:11.203Z,21.79
2022-10-01T18:21:26.697Z,21.65
2022-10-01T18:24:01.863Z,21.52
2022-10-01T18:26:31.949Z,21.49
2022-10-01T18:28:59.268Z,21.45
2022-10-01T18:31:38.543Z,21.40
2022-10-01T18:34:16.047Z,21.27
2022-10-01T18:37:07.427Z,21.23
2022-10-01T18:39:47.523Z,21.24
2022-10-01T18:42:27.606Z,21.18
2022-10-01T18:45:01.335Z,21.13
2022-10-01T18:47:59.054Z,20.89
2022-10-01T18:50:33.252Z,21.08
2022-10-01T18:53:22.076Z,21.02
2022-10-01T18:56:11.567Z,20.93
2022-10-01T18:59:06.609Z,20.90
2022-10-01T19:01:40.710Z,20.84
2022-10-01T19:04:08.330Z,20.84
2022-10-01T19:07:13.060Z,20.80
2022-10-01T19:10:14.590Z,20.79
2022-10-01T19:12:42.017Z,20.64
2022-10-01T19:15:43.753Z,20.62
2022-10-01T19:18:29.870Z,20.50
2022-10-01T19:21:06.565Z,20.46
2022-10-01T19:23:37.027Z,20.47
2022-10-01T19:26:04.402Z,20.47
2022-10-01T19:29:10.198Z,20.37
2022-10-01T19:31:45.651Z,20.35
2022-10-01T19:34:15.878Z,20.32
2022-10-01T19:36:53.923Z,20.24
2022-10-01T19:39:26.926Z,20.24
2022-10-01T19:42:06.541Z,20.25
2022-10-01T19:44:54.864Z,20.11
2022-10-01T19:47:36.608Z,20.18
2022-10-01T19:50:20.559Z,20.14
2022-10-01T19:52:52.046Z,20.08
2022-10-01T19:55:25.094Z,20.12
2022-10-01T19:57:53.334Z,20.08
2022-10-01T20:00:23.132Z,20.07
2022-10-01T20:03:11.766Z,19.59
2022-10-01T20:05:57.685Z,20.00
2022-10-01T20:08:36.019Z,19.99
2022-10-01T20:11:14.504Z,19.94
2022-10-01T20:14:02.984Z,19.96
2022-10-01T20:16:43.912Z,19.88
2022-10-01T20:19:31.035Z,19.88
2022-10-01T20:22:26.560Z,19.81
2022-10-01T20:25:33.797Z,19.76
2022-10-01T20:28:25.485Z,19.74
2022-10-01T20:31:23.230Z,19.68
2022-10-01T20:34:00.275Z,19.65
2022-10-01T20:36:50.350Z,19.65
2022-10-01T20:39:26.203Z,19.71
2022-10-01T20:41:56.335Z,19.77
2022-10-01T20:44:36.367Z,19.61
2022-10-01T20:47:11.973Z,19.72
2022-10-01T20:50:22.638Z,19.75
2022-10-01T20:53:10.349Z,19.77
2022-10-01T20:56:09.905Z,19.76
2022-10-01T20:58:46.629Z,19.77
2022-10-01T21:01:21.900Z,19.78
2022-10-01T21:04:19.685Z,19.80
2022-10-01T21:06:52.393Z,19.80
2022-10-01T21:09:29.414Z,19.71
2022-10-01T21:12:10.425Z,19.71
2022-10-01T21:14:56.864Z,19.69
2022-10-01T21:17:42.482Z,19.76
2022-10-01T21:20:24.938Z,19.78
2022-10-01T21:23:11.611Z,19.85
2022-10-01T21:25:52.776Z,19.92
2022-10-01T21:28:57.927Z,19.89
2022-10-01T21:31:29.918Z,19.95
2022-10-01T21:34:24.559Z,19.94
2022-10-01T21:36:55.960Z,19.92
2022-10-01T21:39:32.010Z,19.87
2022-10-01T21:42:08.790Z,19.88
2022-10-01T21:45:15.255Z,19.88
2022-10-01T21:47:59.794Z,19.87
2022-10-01T21:50:38.562Z,19.86
2022-10-01T21:53:39.153Z,19.78
2022-10-01T21:56:29.809Z,19.56
2022-10-01T21:59:00.373Z,19.37
2022-10-01T22:01:54.556Z,19.21
2022-10-01T22:04:32.658Z,18.70
2022-10-01T22:07:06.291Z,18.48
2022-10-01T22:09:49.285Z,18.45
2022-10-01T22:12:16.983Z,18.57
2022-10-01T22:14:46.756Z,18.52
2022-10-01T22:17:21.058Z,18.39
2022-10-01T22:19:52.963Z,18.19
2022-10-01T22:22:31.631Z,18.16
2022-10-01T22:25:01.075Z,18.02
2022-10-01T22:27:35.248Z,18.00
2022-10-01T22:30:02.410Z,17.95
2022-10-01T22:32:36.579Z,17.76
2022-10-01T22:35:12.874Z,17.87
2022-10-01T22:37:47.022Z,17.90
2022-10-01T22:40:23.974Z,17.99
2022-10-01T22:43:05.670Z,18.02
2022-10-01T22:45:43.791Z,18.02
2022-10-01T22:48:21.669Z,18.08
2022-10-01T22:51:12.708Z,18.09
2022-10-01T22:54:09.758Z,18.11
2022-10-01T22:57:06.396Z,18.15
2022-10-01T22:59:51.522Z,18.17
2022-10-01T23:02:38.127Z,18.14
2022-10-01T23:05:33.219Z,18.21
2022-10-01T23:08:30.357Z,18.24
2022-10-01T23:11:14.842Z,18.25
2022-10-01T23:14:04.093Z,18.24
2022-10-01T23:17:02.653Z,18.33
2022-10-01T23:19:59.208Z,18.16
2022-10-01T23:22:51.474Z,18.39
2022-10-01T23:25:28.048Z,18.48
2022-10-01T23:28:27.771Z,18.47
2022-10-01T23:31:22.761Z,18.49
2022-10-01T23:34:23.980Z,18.48
2022-10-01T23:37:09.876Z,18.39
2022-10-01T23:39:50.667Z,18.46
2022-10-01T23:42:29.009Z,18.49
2022-10-01T23:45:18.970Z,18.52
2022-10-01T23:47:52.558Z,18.54
2022-10-01T23:50:37.835Z,18.57
2022-10-01T23:53:16.263Z,18.58
2022-10-01T23:56:09.672Z,18.64
2022-10-01T23:59:03.355Z,18.65
